Time;durP1;ratioP1;P1;durP2;ratioP2;P2;SDS_P1;SDS_P2;PMS_P1;PMS_P2;Temp;Humidity;BMP_temperature;BMP_pressure;BME280_temperature;BME280_humidity;BME280_pressure;Samples;Min_cycle;Max_cycle;Signal;HPM_P1;HPM_P2
2022/07/24 00:01:50;;;;;;;10.75;7.20;;;;;;;;;;5022639;28;20468;-75
2022/07/24 00:04:16;;;;;;;11.68;7.57;;;;;;;;;;5022363;28;20048;-76
2022/07/24 00:06:42;;;;;;;8.38;7.20;;;;;;;;;;5026442;28;20040;-76
2022/07/24 00:09:09;;;;;;;10.15;6.90;;;;;;;;;;5024094;28;20472;-76
2022/07/24 00:11:35;;;;;;;10.35;7.75;;;;;;;;;;5020819;28;20174;-76
2022/07/24 00:14:01;;;;;;;12.27;7.32;;;;;;;;;;5024901;28;20068;-76
2022/07/24 00:16:27;;;;;;;9.50;7.28;;;;;;;;;;5023333;28;20032;-75
2022/07/24 00:18:53;;;;;;;10.10;8.55;;;;;;;;;;5023222;28;20033;-75
2022/07/24 00:21:19;;;;;;;12.50;8.18;;;;;;;;;;5026505;28;20030;-75
2022/07/24 00:23:45;;;;;;;9.98;8.10;;;;;;;;;;5022409;28;20042;-75
2022/07/24 00:26:11;;;;;;;9.18;7.78;;;;;;;;;;5024783;28;20030;-75
2022/07/24 00:28:37;;;;;;;11.88;7.72;;;;;;;;;;5018223;28;20084;-75
2022/07/24 00:31:04;;;;;;;11.60;7.70;;;;;;;;;;5023449;28;20442;-75
2022/07/24 00:33:30;;;;;;;9.20;7.88;;;;;;;;;;5025663;28;20032;-75
2022/07/24 00:35:56;;;;;;;10.57;7.88;;;;;;;;;;5022668;28;20366;-75
2022/07/24 00:38:22;;;;;;;10.27;8.68;;;;;;;;;;5025934;28;20488;-75
2022/07/24 00:40:48;;;;;;;13.27;7.53;;;;;;;;;;5021849;28;20099;-75
2022/07/24 00:43:16;;;;;;;10.38;8.32;;;;;;;;;;5024999;28;20029;-75
2022/07/24 00:45:42;;;;;;;8.43;7.28;;;;;;;;;;5020952;28;20034;-75
2022/07/24 00:48:08;;;;;;;11.40;7.43;;;;;;;;;;5022497;28;20057;-75
2022/07/24 00:50:34;;;;;;;9.57;7.78;;;;;;;;;;5022074;28;20038;-75
2022/07/24 00:53:00;;;;;;;9.48;7.30;;;;;;;;;;5023485;28;20033;-75
2022/07/24 00:55:28;;;;;;;10.32;8.02;;;;;;;;;;5023372;28;20049;-75
2022/07/24 00:57:54;;;;;;;9.77;7.32;;;;;;;;;;5022886;28;20025;-75
2022/07/24 01:00:21;;;;;;;12.40;8.02;;;;;;;;;;5024468;28;20037;-75
2022/07/24 01:02:48;;;;;;;12.35;8.25;;;;;;;;;;5024149;28;20191;-75
2022/07/24 01:05:14;;;;;;;9.23;8.10;;;;;;;;;;5021942;28;20078;-75
2022/07/24 01:07:40;;;;;;;9.02;7.75;;;;;;;;;;5022436;28;20034;-75
2022/07/24 01:10:07;;;;;;;9.82;7.85;;;;;;;;;;5023745;28;20048;-75
2022/07/24 01:12:33;;;;;;;12.85;9.07;;;;;;;;;;5024350;28;20064;-75
2022/07/24 01:14:59;;;;;;;10.63;7.90;;;;;;;;;;5021023;28;20042;-75
2022/07/24 01:17:30;;;;;;;9.38;8.10;;;;;;;;;;5023454;28;20586;-75
2022/07/24 01:19:56;;;;;;;12.45;8.75;;;;;;;;;;5023963;28;20082;-75
2022/07/24 01:22:22;;;;;;;12.10;8.70;;;;;;;;;;5022552;28;20057;-75
2022/07/24 01:24:48;;;;;;;13.70;10.43;;;;;;;;;;5022864;28;20049;-75
2022/07/24 01:27:14;;;;;;;12.50;9.05;;;;;;;;;;5023965;28;20048;-75
2022/07/24 01:29:40;;;;;;;12.15;10.43;;;;;;;;;;5019705;28;20180;-75
2022/07/24 01:32:06;;;;;;;11.55;9.27;;;;;;;;;;5019027;28;20544;-75
2022/07/24 01:34:33;;;;;;;10.30;8.63;;;;;;;;;;5021159;28;20039;-75
2022/07/24 01:36:59;;;;;;;11.43;8.57;;;;;;;;;;5020648;28;20099;-75
2022/07/24 01:39:25;;;;;;;11.10;8.40;;;;;;;;;;5022600;28;20042;-75
2022/07/24 01:41:51;;;;;;;11.18;8.25;;;;;;;;;;5022808;28;20377;-75
2022/07/24 01:44:17;;;;;;;11.05;8.13;;;;;;;;;;5023583;28;20383;-75
2022/07/24 01:46:43;;;;;;;14.73;8.32;;;;;;;;;;5021629;28;20040;-75
2022/07/24 01:49:09;;;;;;;11.68;8.15;;;;;;;;;;5020965;28;20115;-75
2022/07/24 01:51:35;;;;;;;10.10;8.05;;;;;;;;;;5020739;28;20034;-75
2022/07/24 01:54:02;;;;;;;10.00;8.00;;;;;;;;;;5019203;28;20393;-75
2022/07/24 01:56:28;;;;;;;10.10;8.50;;;;;;;;;;5021472;28;20068;-75
2022/07/24 01:58:54;;;;;;;10.57;8.20;;;;;;;;;;5022238;28;20037;-75
2022/07/24 02:01:20;;;;;;;9.43;7.70;;;;;;;;;;5022728;28;20069;-75
2022/07/24 02:03:46;;;;;;;12.48;8.30;;;;;;;;;;5021613;28;20132;-75
2022/07/24 02:06:13;;;;;;;9.07;7.80;;;;;;;;;;5021981;28;20472;-75
2022/07/24 02:08:39;;;;;;;10.05;8.70;;;;;;;;;;5022186;28;20116;-75
2022/07/24 02:11:05;;;;;;;10.95;8.35;;;;;;;;;;5022519;28;20071;-75
2022/07/24 02:13:31;;;;;;;9.15;8.02;;;;;;;;;;5023636;28;20033;-75
2022/07/24 02:15:57;;;;;;;11.88;8.43;;;;;;;;;;5020013;28;20034;-75
2022/07/24 02:18:23;;;;;;;11.07;8.20;;;;;;;;;;5021721;28;20509;-75
2022/07/24 02:20:49;;;;;;;10.30;8.25;;;;;;;;;;5017098;28;20044;-75
2022/07/24 02:23:17;;;;;;;11.68;9.65;;;;;;;;;;5017315;28;20448;-75
2022/07/24 02:25:47;;;;;;;13.18;9.38;;;;;;;;;;5020005;28;20079;-75
2022/07/24 02:28:13;;;;;;;11.57;9.23;;;;;;;;;;5022731;28;20033;-75
2022/07/24 02:30:40;;;;;;;14.05;9.52;;;;;;;;;;5022248;28;20551;-75
2022/07/24 02:33:06;;;;;;;12.15;9.55;;;;;;;;;;5019967;28;20037;-75
2022/07/24 02:35:32;;;;;;;11.68;10.13;;;;;;;;;;5022546;28;20029;-75
2022/07/24 02:37:59;;;;;;;12.43;8.32;;;;;;;;;;5021790;28;20078;-75
2022/07/24 02:40:25;;;;;;;12.20;9.07;;;;;;;;;;5020341;28;20500;-75
2022/07/24 02:42:51;;;;;;;9.90;8.82;;;;;;;;;;5018958;28;20041;-75
2022/07/24 02:45:17;;;;;;;14.77;9.57;;;;;;;;;;5021959;28;20492;-76
2022/07/24 02:48:01;;;;;;;9.82;8.73;;;;;;;;;;5023102;28;20033;-75
2022/07/24 02:50:30;;;;;;;12.52;9.35;;;;;;;;;;5019520;28;20029;-75
2022/07/24 02:52:56;;;;;;;11.77;9.32;;;;;;;;;;5022069;28;20456;-75
2022/07/24 02:55:22;;;;;;;11.13;8.30;;;;;;;;;;5020939;28;20026;-75
2022/07/24 02:57:48;;;;;;;10.00;8.73;;;;;;;;;;5021569;28;20032;-75
2022/07/24 03:00:16;;;;;;;11.75;9.40;;;;;;;;;;5019702;28;20033;-75
2022/07/24 03:02:42;;;;;;;12.18;9.98;;;;;;;;;;5022125;28;20072;-75
2022/07/24 03:05:08;;;;;;;12.85;9.07;;;;;;;;;;5019193;28;20101;-75
2022/07/24 03:07:36;;;;;;;12.23;9.60;;;;;;;;;;5019327;28;20121;-75
2022/07/24 03:10:03;;;;;;;12.70;9.90;;;;;;;;;;5025674;28;20041;-75
2022/07/24 03:12:29;;;;;;;12.23;10.00;;;;;;;;;;5024882;28;20056;-75
2022/07/24 03:14:55;;;;;;;12.57;9.20;;;;;;;;;;5024124;28;20112;-75
2022/07/24 03:17:21;;;;;;;10.88;8.88;;;;;;;;;;5024749;28;20052;-75
2022/07/24 03:19:47;;;;;;;13.82;9.65;;;;;;;;;;5023380;28;20053;-75
2022/07/24 03:22:13;;;;;;;9.82;8.50;;;;;;;;;;5021079;28;20037;-75
2022/07/24 03:24:39;;;;;;;14.35;8.88;;;;;;;;;;5023576;28;20038;-75
2022/07/24 03:27:05;;;;;;;12.60;9.13;;;;;;;;;;5025053;28;20088;-75
2022/07/24 03:29:31;;;;;;;9.88;7.60;;;;;;;;;;5025188;28;20666;-75
2022/07/24 03:31:57;;;;;;;10.63;8.10;;;;;;;;;;5026074;28;20147;-75
2022/07/24 03:34:23;;;;;;;10.57;8.60;;;;;;;;;;5023784;28;20286;-75
2022/07/24 03:36:49;;;;;;;12.07;8.25;;;;;;;;;;5023078;28;20063;-75
2022/07/24 03:39:15;;;;;;;11.80;8.35;;;;;;;;;;5026837;28;20334;-76
2022/07/24 03:41:41;;;;;;;17.15;9.07;;;;;;;;;;5024553;28;20413;-75
2022/07/24 03:44:07;;;;;;;10.40;8.65;;;;;;;;;;5021954;28;20397;-75
2022/07/24 03:46:33;;;;;;;10.13;8.10;;;;;;;;;;5023240;28;20452;-75
2022/07/24 03:48:59;;;;;;;11.50;9.45;;;;;;;;;;5026463;28;20044;-75
2022/07/24 03:51:26;;;;;;;13.45;10.45;;;;;;;;;;5023425;28;20033;-75
2022/07/24 03:53:52;;;;;;;13.57;10.00;;;;;;;;;;5025982;28;20838;-75
2022/07/24 03:56:18;;;;;;;13.00;9.38;;;;;;;;;;5025683;28;20476;-75
2022/07/24 03:58:44;;;;;;;11.98;9.32;;;;;;;;;;5020803;28;20034;-75
2022/07/24 04:01:10;;;;;;;14.05;9.27;;;;;;;;;;5024390;28;20144;-75
2022/07/24 04:03:36;;;;;;;10.75;9.40;;;;;;;;;;5025072;28;20030;-75
2022/07/24 04:06:03;;;;;;;14.27;8.57;;;;;;;;;;5024053;28;20079;-75
2022/07/24 04:08:29;;;;;;;12.35;9.35;;;;;;;;;;5022962;28;20033;-75
2022/07/24 04:10:58;;;;;;;14.05;8.85;;;;;;;;;;5023740;28;20041;-75
2022/07/24 04:13:25;;;;;;;12.18;9.35;;;;;;;;;;5023726;28;20025;-75
2022/07/24 04:15:51;;;;;;;12.00;9.05;;;;;;;;;;5025854;28;20040;-75
2022/07/24 04:18:17;;;;;;;12.20;8.63;;;;;;;;;;5023611;28;20460;-75
2022/07/24 04:20:43;;;;;;;16.63;11.18;;;;;;;;;;5025058;28;20045;-75
2022/07/24 04:23:09;;;;;;;14.02;10.98;;;;;;;;;;5021672;28;20071;-75
2022/07/24 04:25:35;;;;;;;14.48;10.88;;;;;;;;;;5024139;28;20083;-75
2022/07/24 04:28:02;;;;;;;15.80;9.85;;;;;;;;;;5023890;28;20033;-75
2022/07/24 04:30:28;;;;;;;12.68;10.10;;;;;;;;;;5024577;28;20495;-75
2022/07/24 04:32:54;;;;;;;11.05;9.45;;;;;;;;;;5023063;28;20025;-75
2022/07/24 04:35:20;;;;;;;12.50;10.98;;;;;;;;;;5022871;28;20041;-75
2022/07/24 04:37:47;;;;;;;14.32;10.05;;;;;;;;;;5026466;28;20053;-75
2022/07/24 04:40:13;;;;;;;13.52;10.07;;;;;;;;;;5020589;28;20138;-76
2022/07/24 04:42:39;;;;;;;14.75;10.32;;;;;;;;;;5023991;28;20140;-76
2022/07/24 04:45:06;;;;;;;12.27;10.07;;;;;;;;;;5023456;28;20038;-75
2022/07/24 04:47:32;;;;;;;13.30;9.25;;;;;;;;;;5022680;28;20497;-75
2022/07/24 04:49:58;;;;;;;12.40;9.77;;;;;;;;;;5021862;28;20080;-75
2022/07/24 04:52:24;;;;;;;13.65;9.52;;;;;;;;;;5022229;28;20104;-75
2022/07/24 04:54:50;;;;;;;17.27;11.15;;;;;;;;;;5026063;28;20037;-75
2022/07/24 04:57:16;;;;;;;13.63;10.07;;;;;;;;;;5020933;28;20610;-75
2022/07/24 04:59:42;;;;;;;16.48;10.88;;;;;;;;;;5024905;28;20227;-75
2022/07/24 05:02:08;;;;;;;14.30;10.32;;;;;;;;;;5025135;28;20614;-75
2022/07/24 05:04:34;;;;;;;14.50;9.52;;;;;;;;;;5020008;28;20484;-75
2022/07/24 05:07:01;;;;;;;11.18;9.85;;;;;;;;;;5022331;28;20116;-75
2022/07/24 05:09:27;;;;;;;13.95;10.23;;;;;;;;;;5027391;28;20121;-75
2022/07/24 05:11:53;;;;;;;15.40;11.05;;;;;;;;;;5024685;28;20033;-75
2022/07/24 05:14:19;;;;;;;12.30;10.30;;;;;;;;;;5020367;28;20029;-76
2022/07/24 05:16:45;;;;;;;12.07;9.63;;;;;;;;;;5020519;28;20539;-75
2022/07/24 05:19:12;;;;;;;17.05;9.88;;;;;;;;;;5023522;28;20228;-75
2022/07/24 05:21:38;;;;;;;13.57;10.13;;;;;;;;;;5021859;28;20376;-75
2022/07/24 05:24:04;;;;;;;12.07;9.32;;;;;;;;;;5023855;28;20041;-75
2022/07/24 05:26:31;;;;;;;13.07;9.35;;;;;;;;;;5023239;28;20036;-75
2022/07/24 05:29:00;;;;;;;12.20;10.00;;;;;;;;;;5024276;28;20049;-75
2022/07/24 05:31:27;;;;;;;13.70;9.65;;;;;;;;;;5020531;28;20307;-75
2022/07/24 05:33:53;;;;;;;12.57;9.80;;;;;;;;;;5023144;28;20073;-75
2022/07/24 05:36:19;;;;;;;12.95;9.38;;;;;;;;;;5022032;28;20025;-75
2022/07/24 05:38:45;;;;;;;13.52;9.93;;;;;;;;;;5021745;28;20507;-75
2022/07/24 05:41:12;;;;;;;14.52;11.00;;;;;;;;;;5021716;28;20033;-75
2022/07/24 05:43:38;;;;;;;12.88;10.63;;;;;;;;;;5022550;28;20044;-75
2022/07/24 05:46:05;;;;;;;11.70;10.02;;;;;;;;;;5021844;28;20034;-75
2022/07/24 05:48:31;;;;;;;11.55;9.55;;;;;;;;;;5022865;28;20104;-75
2022/07/24 05:50:57;;;;;;;10.68;8.57;;;;;;;;;;5021232;28;20042;-75
2022/07/24 05:53:23;;;;;;;10.23;8.63;;;;;;;;;;5024785;28;20036;-75
2022/07/24 05:55:49;;;;;;;10.02;8.30;;;;;;;;;;5022444;28;20120;-75
2022/07/24 05:58:16;;;;;;;10.43;7.97;;;;;;;;;;5023194;28;20025;-75
2022/07/24 06:00:42;;;;;;;14.27;11.90;;;;;;;;;;5021592;28;20033;-75
2022/07/24 06:03:08;;;;;;;12.15;10.30;;;;;;;;;;5022244;28;20476;-75
2022/07/24 06:05:34;;;;;;;10.52;9.43;;;;;;;;;;5021920;28;20041;-75
2022/07/24 06:08:00;;;;;;;10.27;8.73;;;;;;;;;;5019850;28;20033;-75
2022/07/24 06:10:26;;;;;;;12.25;8.70;;;;;;;;;;5023206;28;20108;-75
2022/07/24 06:12:52;;;;;;;9.63;8.52;;;;;;;;;;5024567;28;20097;-75
2022/07/24 06:15:18;;;;;;;12.02;8.68;;;;;;;;;;5021678;28;20473;-75
2022/07/24 06:17:45;;;;;;;11.65;8.15;;;;;;;;;;5015665;28;20060;-75
2022/07/24 06:20:16;;;;;;;11.13;8.13;;;;;;;;;;5022930;28;20044;-75
2022/07/24 06:22:42;;;;;;;11.05;7.40;;;;;;;;;;5021084;28;20029;-75
2022/07/24 06:25:08;;;;;;;9.38;8.35;;;;;;;;;;5020140;28;20045;-75
2022/07/24 06:27:34;;;;;;;9.30;8.30;;;;;;;;;;5022337;28;20034;-75
2022/07/24 06:30:00;;;;;;;10.85;9.30;;;;;;;;;;5020662;28;20088;-75
2022/07/24 06:32:26;;;;;;;11.65;8.57;;;;;;;;;;5023549;28;20448;-75
2022/07/24 06:34:52;;;;;;;11.88;8.68;;;;;;;;;;5025122;28;20034;-75
2022/07/24 06:37:18;;;;;;;12.48;9.15;;;;;;;;;;5022562;28;20042;-75
2022/07/24 06:39:44;;;;;;;11.27;8.75;;;;;;;;;;5021096;28;20515;-75
2022/07/24 06:42:10;;;;;;;11.98;9.43;;;;;;;;;;5022301;28;20030;-75
2022/07/24 06:44:38;;;;;;;9.70;8.63;;;;;;;;;;5026984;28;20040;-75
2022/07/24 06:47:04;;;;;;;14.18;9.13;;;;;;;;;;5025473;28;20022;-75
2022/07/24 06:49:30;;;;;;;9.65;8.55;;;;;;;;;;5026125;28;20125;-75
2022/07/24 06:51:56;;;;;;;11.35;8.20;;;;;;;;;;5029206;28;20037;-75
2022/07/24 06:54:22;;;;;;;11.02;8.95;;;;;;;;;;5028088;28;20025;-75
2022/07/24 06:56:48;;;;;;;14.00;9.38;;;;;;;;;;5027625;28;20480;-75
2022/07/24 06:59:14;;;;;;;11.00;8.85;;;;;;;;;;5022764;28;20137;-75
2022/07/24 07:01:40;;;;;;;9.55;8.55;;;;;;;;;;5020965;28;20041;-75
2022/07/24 07:04:06;;;;;;;11.38;9.43;;;;;;;;;;5025135;28;20041;-75
2022/07/24 07:06:32;;;;;;;12.20;9.10;;;;;;;;;;5026802;28;20029;-75
2022/07/24 07:08:58;;;;;;;10.75;8.35;;;;;;;;;;5029111;28;20050;-75
2022/07/24 07:11:25;;;;;;;10.98;8.38;;;;;;;;;;5030272;28;20112;-75
2022/07/24 07:13:51;;;;;;;11.55;8.80;;;;;;;;;;5026605;28;20030;-75
2022/07/24 07:16:17;;;;;;;11.02;9.45;;;;;;;;;;5024405;28;20025;-75
2022/07/24 07:18:43;;;;;;;11.90;8.93;;;;;;;;;;5028503;28;20037;-75
2022/07/24 07:21:09;;;;;;;11.90;8.93;;;;;;;;;;5026709;28;20121;-76
2022/07/24 07:23:35;;;;;;;10.45;8.15;;;;;;;;;;5026334;28;20034;-75
2022/07/24 07:26:01;;;;;;;10.30;9.05;;;;;;;;;;5024707;28;20052;-75
2022/07/24 07:28:27;;;;;;;12.77;8.95;;;;;;;;;;5017838;28;20520;-75
2022/07/24 07:30:53;;;;;;;12.15;8.70;;;;;;;;;;5024962;28;20032;-75
2022/07/24 07:33:19;;;;;;;11.15;9.10;;;;;;;;;;5028529;28;20037;-75
2022/07/24 07:35:45;;;;;;;11.38;9.13;;;;;;;;;;5030610;28;20048;-75
2022/07/24 07:38:11;;;;;;;10.10;8.75;;;;;;;;;;5023758;28;20045;-75
2022/07/24 07:40:37;;;;;;;13.52;9.75;;;;;;;;;;5021941;28;20080;-76
2022/07/24 07:43:03;;;;;;;12.20;9.70;;;;;;;;;;5028211;28;20037;-76
2022/07/24 07:45:29;;;;;;;14.20;9.77;;;;;;;;;;5023288;28;20295;-75
2022/07/24 07:47:55;;;;;;;11.77;9.25;;;;;;;;;;5024615;28;20026;-76
2022/07/24 07:50:21;;;;;;;10.85;8.57;;;;;;;;;;5026412;28;20769;-75
2022/07/24 07:52:47;;;;;;;9.48;8.48;;;;;;;;;;5024495;28;20025;-75
2022/07/24 07:55:13;;;;;;;9.35;8.23;;;;;;;;;;5024786;28;20206;-75
2022/07/24 07:57:41;;;;;;;10.45;9.35;;;;;;;;;;5024601;28;20140;-75
2022/07/24 08:00:07;;;;;;;13.65;8.98;;;;;;;;;;5024173;28;20819;-76
2022/07/24 08:02:33;;;;;;;12.00;8.75;;;;;;;;;;5028833;28;20534;-76
2022/07/24 08:04:59;;;;;;;10.30;7.88;;;;;;;;;;5025839;28;20042;-76
2022/07/24 08:07:25;;;;;;;12.05;8.93;;;;;;;;;;5021204;28;20033;-76
2022/07/24 08:09:51;;;;;;;10.95;9.02;;;;;;;;;;5026457;28;20037;-76
2022/07/24 08:12:17;;;;;;;9.95;8.95;;;;;;;;;;5025828;28;20069;-76
2022/07/24 08:14:43;;;;;;;11.85;8.60;;;;;;;;;;5023015;28;20550;-76
2022/07/24 08:17:09;;;;;;;11.10;9.40;;;;;;;;;;5023292;28;20033;-76
2022/07/24 08:19:35;;;;;;;11.52;8.45;;;;;;;;;;5025621;28;20033;-76
2022/07/24 08:22:02;;;;;;;11.05;8.68;;;;;;;;;;5022803;28;20052;-76
2022/07/24 08:24:28;;;;;;;13.57;9.35;;;;;;;;;;5026236;28;20037;-76
2022/07/24 08:26:54;;;;;;;10.68;7.80;;;;;;;;;;5025465;28;20056;-75
2022/07/24 08:29:20;;;;;;;10.10;9.02;;;;;;;;;;5022130;28;20088;-75
2022/07/24 08:31:46;;;;;;;12.10;9.02;;;;;;;;;;5011095;28;20029;-75
2022/07/24 08:34:12;;;;;;;9.82;8.27;;;;;;;;;;5022093;28;20773;-76
2022/07/24 08:36:38;;;;;;;9.38;8.27;;;;;;;;;;5017657;28;20037;-76
2022/07/24 08:39:05;;;;;;;13.48;8.90;;;;;;;;;;5023200;28;20755;-75
2022/07/24 08:41:33;;;;;;;11.15;8.50;;;;;;;;;;5021424;28;20037;-75
2022/07/24 08:44:00;;;;;;;8.98;8.05;;;;;;;;;;5023690;28;20029;-75
2022/07/24 08:46:26;;;;;;;11.30;8.65;;;;;;;;;;5027204;28;20559;-75
2022/07/24 08:48:53;;;;;;;13.00;9.25;;;;;;;;;;5023184;28;20044;-75
2022/07/24 08:51:19;;;;;;;10.38;9.23;;;;;;;;;;5025295;28;20505;-76
2022/07/24 08:53:47;;;;;;;12.32;8.98;;;;;;;;;;5023345;28;20460;-76
2022/07/24 08:56:13;;;;;;;12.90;9.30;;;;;;;;;;5026728;28;20553;-76
2022/07/24 08:58:40;;;;;;;11.70;8.23;;;;;;;;;;5022157;28;20037;-76
2022/07/24 09:01:06;;;;;;;11.63;9.23;;;;;;;;;;5022380;28;20397;-76
2022/07/24 09:03:39;;;;;;;9.90;7.90;;;;;;;;;;5025629;28;20204;-76
2022/07/24 09:06:07;;;;;;;10.90;8.45;;;;;;;;;;5023776;28;20044;-76
2022/07/24 09:08:33;;;;;;;10.07;8.32;;;;;;;;;;5023289;28;20530;-76
2022/07/24 09:11:04;;;;;;;15.05;8.23;;;;;;;;;;5022910;28;20041;-76
2022/07/24 09:14:29;;;;;;;13.93;8.43;;;;;;;;;;5024495;28;20261;-76
2022/07/24 09:16:22;;;;;;;10.90;7.95;;;;;;;;;;5023341;28;20280;-76
2022/07/24 09:18:49;;;;;;;12.48;7.88;;;;;;;;;;5023566;28;20109;-76
2022/07/24 09:21:16;;;;;;;8.85;7.40;;;;;;;;;;5022672;28;20029;-76
2022/07/24 09:23:42;;;;;;;9.52;7.38;;;;;;;;;;5024608;28;20041;-76
2022/07/24 09:26:09;;;;;;;8.90;7.05;;;;;;;;;;5025671;28;20037;-76
2022/07/24 09:28:55;;;;;;;10.40;8.10;;;;;;;;;;5023297;28;20072;-76
2022/07/24 09:31:22;;;;;;;11.45;8.32;;;;;;;;;;5023417;28;20083;-75
2022/07/24 09:33:48;;;;;;;10.98;8.02;;;;;;;;;;5023362;28;20116;-75
2022/07/24 09:36:16;;;;;;;9.98;7.38;;;;;;;;;;5020287;28;20705;-75
2022/07/24 09:38:50;;;;;;;11.35;7.78;;;;;;;;;;5020664;28;20053;-76
2022/07/24 09:41:20;;;;;;;8.52;6.95;;;;;;;;;;5022997;28;20036;-76
2022/07/24 09:43:56;;;;;;;10.97;7.63;;;;;;;;;;5022424;28;20041;-75
2022/07/24 09:46:24;;;;;;;8.27;6.93;;;;;;;;;;5023312;28;20461;-76
2022/07/24 09:48:50;;;;;;;9.63;7.45;;;;;;;;;;5021621;28;20069;-75
2022/07/24 09:51:17;;;;;;;8.63;6.88;;;;;;;;;;5022619;28;20116;-76
2022/07/24 09:53:44;;;;;;;11.43;7.90;;;;;;;;;;5027908;28;20033;-76
2022/07/24 09:56:12;;;;;;;10.23;8.02;;;;;;;;;;5023505;28;20147;-77
2022/07/24 09:58:47;;;;;;;8.27;6.95;;;;;;;;;;5026471;28;20042;-76
2022/07/24 10:01:17;;;;;;;9.63;7.38;;;;;;;;;;5019910;28;20063;-76
2022/07/24 10:03:44;;;;;;;9.77;7.68;;;;;;;;;;5025416;28;20025;-76
2022/07/24 10:06:12;;;;;;;8.63;7.15;;;;;;;;;;5023091;28;20806;-77
2022/07/24 10:08:41;;;;;;;9.48;7.43;;;;;;;;;;5024176;28;20090;-76
2022/07/24 10:11:08;;;;;;;10.77;7.03;;;;;;;;;;5029602;28;20076;-76
2022/07/24 10:13:34;;;;;;;10.32;7.22;;;;;;;;;;5029039;28;20025;-76
2022/07/24 10:16:00;;;;;;;8.70;7.40;;;;;;;;;;5024690;28;20025;-76
2022/07/24 10:18:33;;;;;;;8.82;6.93;;;;;;;;;;5022809;28;20083;-76
2022/07/24 10:21:04;;;;;;;10.85;7.43;;;;;;;;;;5026084;28;20042;-76
2022/07/24 10:23:37;;;;;;;7.68;6.28;;;;;;;;;;5026492;28;20075;-76
2022/07/24 10:26:07;;;;;;;10.10;7.85;;;;;;;;;;5022861;28;20038;-76
2022/07/24 10:28:37;;;;;;;9.15;7.55;;;;;;;;;;5024400;28;20109;-76
2022/07/24 10:31:05;;;;;;;7.25;6.10;;;;;;;;;;5023741;28;20189;-76
2022/07/24 10:33:31;;;;;;;12.10;7.15;;;;;;;;;;5020128;28;20528;-75
2022/07/24 10:35:59;;;;;;;9.38;6.97;;;;;;;;;;5022246;28;20080;-75
2022/07/24 10:38:34;;;;;;;9.50;6.93;;;;;;;;;;5022328;28;20076;-76
2022/07/24 10:41:03;;;;;;;9.30;6.85;;;;;;;;;;5024997;28;20144;-75
2022/07/24 10:43:29;;;;;;;8.40;6.95;;;;;;;;;;5020743;28;20033;-75
2022/07/24 10:45:55;;;;;;;9.68;6.47;;;;;;;;;;5018605;28;20567;-76
2022/07/24 10:48:21;;;;;;;8.65;7.13;;;;;;;;;;5023316;28;20061;-76
2022/07/24 10:50:59;;;;;;;11.05;7.00;;;;;;;;;;5026557;28;20033;-76
2022/07/24 10:53:26;;;;;;;8.65;6.32;;;;;;;;;;5023841;28;20030;-76
2022/07/24 10:55:54;;;;;;;10.68;6.70;;;;;;;;;;5023465;28;20450;-76
2022/07/24 10:58:21;;;;;;;9.05;6.18;;;;;;;;;;5024049;28;20025;-76
2022/07/24 11:00:48;;;;;;;9.00;6.38;;;;;;;;;;5021008;28;20897;-76
2022/07/24 11:03:19;;;;;;;9.05;6.05;;;;;;;;;;5022493;28;20034;-76
2022/07/24 11:06:05;;;;;;;6.82;4.95;;;;;;;;;;5026808;28;20108;-76
2022/07/24 11:08:33;;;;;;;8.82;5.63;;;;;;;;;;5022425;28;20046;-76
2022/07/24 11:11:05;;;;;;;9.40;6.10;;;;;;;;;;5022357;28;20026;-75
2022/07/24 11:13:30;;;;;;;;;;;;;;;;;;5021810;28;20043;-76
2022/07/24 11:16:12;;;;;;;9.50;5.90;;;;;;;;;;5023331;28;19917;-76
2022/07/24 11:18:38;;;;;;;;;;;;;;;;;;5024418;28;20590;-76
2022/07/24 11:21:04;;;;;;;8.50;5.60;;;;;;;;;;5022966;28;19914;-76
2022/07/24 11:23:30;;;;;;;7.70;6.03;;;;;;;;;;5024278;28;20658;-76
2022/07/24 11:26:16;;;;;;;8.68;6.70;;;;;;;;;;5027580;28;20458;-75
2022/07/24 11:28:42;;;;;;;9.60;6.90;;;;;;;;;;5018998;28;20037;-76
2022/07/24 11:31:10;;;;;;;8.40;6.03;;;;;;;;;;5021826;28;20369;-76
2022/07/24 11:33:37;;;;;;;7.70;6.00;;;;;;;;;;5026573;28;20037;-76
2022/07/24 11:36:07;;;;;;;9.80;6.47;;;;;;;;;;5020974;28;20040;-76
2022/07/24 11:38:33;;;;;;;7.77;5.90;;;;;;;;;;5026588;28;20049;-76
2022/07/24 11:41:06;;;;;;;9.30;5.82;;;;;;;;;;5026847;28;20037;-76
2022/07/24 11:43:34;;;;;;;8.55;5.95;;;;;;;;;;5026622;28;20040;-76
2022/07/24 11:46:00;;;;;;;9.45;5.57;;;;;;;;;;5023391;28;20079;-75
2022/07/24 11:48:26;;;;;;;13.07;6.10;;;;;;;;;;5028027;28;20111;-76
2022/07/24 11:51:03;;;;;;;8.43;5.93;;;;;;;;;;5026777;28;20716;-76
2022/07/24 11:53:29;;;;;;;8.13;6.47;;;;;;;;;;5026331;28;20018;-76
2022/07/24 11:56:04;;;;;;;8.65;5.80;;;;;;;;;;5030779;28;20491;-75
2022/07/24 11:58:38;;;;;;;8.23;5.70;;;;;;;;;;5022653;28;20877;-75
2022/07/24 12:01:18;;;;;;;7.40;5.68;;;;;;;;;;5023862;28;20040;-76
2022/07/24 12:03:57;;;;;;;8.03;5.73;;;;;;;;;;5027145;28;20040;-76
2022/07/24 12:06:23;;;;;;;10.13;5.20;;;;;;;;;;5023739;28;20037;-75
2022/07/24 12:08:49;;;;;;;7.50;5.65;;;;;;;;;;5025463;28;20045;-76
2022/07/24 12:11:22;;;;;;;6.95;5.82;;;;;;;;;;5022496;28;20033;-76
2022/07/24 12:13:48;;;;;;;8.70;6.10;;;;;;;;;;5021926;28;20045;-76
2022/07/24 12:16:24;;;;;;;7.97;5.35;;;;;;;;;;5026283;28;20026;-76
2022/07/24 12:18:50;;;;;;;7.85;6.07;;;;;;;;;;5026537;28;20087;-76
2022/07/24 12:21:18;;;;;;;8.32;5.53;;;;;;;;;;5024309;28;20057;-76
2022/07/24 12:23:46;;;;;;;7.45;5.65;;;;;;;;;;5023055;28;20029;-76
2022/07/24 12:26:12;;;;;;;8.05;5.22;;;;;;;;;;5024200;28;20029;-76
2022/07/24 12:28:38;;;;;;;7.72;5.65;;;;;;;;;;5023711;28;20419;-76
2022/07/24 12:31:09;;;;;;;8.80;5.22;;;;;;;;;;5025606;28;20025;-76
2022/07/24 12:33:35;;;;;;;8.80;4.70;;;;;;;;;;5026246;28;20033;-76
2022/07/24 12:36:11;;;;;;;7.28;4.70;;;;;;;;;;5024700;28;20084;-76
2022/07/24 12:38:42;;;;;;;7.43;5.40;;;;;;;;;;5022376;28;20092;-76
2022/07/24 12:41:08;;;;;;;7.32;5.25;;;;;;;;;;5026440;28;20514;-76
2022/07/24 12:43:47;;;;;;;6.85;5.45;;;;;;;;;;5027485;28;20033;-76
2022/07/24 12:46:13;;;;;;;7.80;5.45;;;;;;;;;;5026478;28;20029;-76
2022/07/24 12:48:39;;;;;;;9.02;4.55;;;;;;;;;;5026147;28;20033;-76
2022/07/24 12:51:10;;;;;;;9.30;5.55;;;;;;;;;;5024320;28;21068;-76
2022/07/24 12:53:37;;;;;;;7.60;5.30;;;;;;;;;;5024356;28;20030;-76
2022/07/24 12:56:03;;;;;;;8.43;5.53;;;;;;;;;;5026381;28;20488;-76
2022/07/24 12:58:29;;;;;;;6.70;5.10;;;;;;;;;;5026022;28;20032;-76
2022/07/24 13:00:58;;;;;;;8.27;5.03;;;;;;;;;;5026880;28;20034;-76
2022/07/24 13:03:25;;;;;;;7.43;5.03;;;;;;;;;;5026712;28;20361;-76
2022/07/24 13:05:55;;;;;;;6.65;5.60;;;;;;;;;;5023964;28;20108;-76
2022/07/24 13:08:21;;;;;;;7.28;5.22;;;;;;;;;;5020252;28;20033;-76
2022/07/24 13:10:47;;;;;;;7.22;4.57;;;;;;;;;;5026075;28;20503;-75
2022/07/24 13:13:13;;;;;;;9.32;5.70;;;;;;;;;;5024214;28;20029;-76
2022/07/24 13:15:39;;;;;;;8.63;5.35;;;;;;;;;;5023607;28;20048;-76
2022/07/24 13:18:06;;;;;;;6.97;5.10;;;;;;;;;;5028093;28;20108;-76
2022/07/24 13:20:32;;;;;;;7.00;5.13;;;;;;;;;;5025412;28;20041;-76
2022/07/24 13:22:58;;;;;;;7.03;5.53;;;;;;;;;;5020576;28;20136;-76
2022/07/24 13:25:24;;;;;;;8.25;5.70;;;;;;;;;;5019516;28;20144;-76
2022/07/24 13:27:50;;;;;;;9.32;5.40;;;;;;;;;;5023525;28;20459;-76
2022/07/24 13:30:16;;;;;;;8.25;5.20;;;;;;;;;;5023419;28;20662;-76
2022/07/24 13:32:42;;;;;;;7.95;5.30;;;;;;;;;;5024727;28;20029;-76
2022/07/24 13:35:09;;;;;;;9.40;5.80;;;;;;;;;;5023128;28;20116;-76
2022/07/24 13:37:35;;;;;;;7.28;5.35;;;;;;;;;;5025558;28;20506;-76
2022/07/24 13:40:03;;;;;;;7.07;5.35;;;;;;;;;;5025373;28;20040;-76
2022/07/24 13:42:29;;;;;;;6.22;4.93;;;;;;;;;;5025531;28;20116;-76
2022/07/24 13:44:55;;;;;;;8.63;5.70;;;;;;;;;;5030069;28;20036;-76
2022/07/24 13:47:21;;;;;;;7.03;4.95;;;;;;;;;;5024961;28;20353;-76
2022/07/24 13:49:47;;;;;;;5.97;4.88;;;;;;;;;;5021315;28;20097;-76
2022/07/24 13:52:15;;;;;;;7.80;5.18;;;;;;;;;;5023103;28;20033;-76
2022/07/24 13:54:41;;;;;;;7.05;5.43;;;;;;;;;;5023370;28;20030;-76
2022/07/24 13:57:07;;;;;;;9.20;5.07;;;;;;;;;;5026870;28;20025;-76
2022/07/24 13:59:34;;;;;;;7.38;5.10;;;;;;;;;;5026011;28;20038;-76
2022/07/24 14:02:00;;;;;;;6.28;4.90;;;;;;;;;;5021226;28;20480;-76
2022/07/24 14:04:26;;;;;;;6.38;4.68;;;;;;;;;;5022740;28;20040;-76
2022/07/24 14:06:52;;;;;;;6.22;4.65;;;;;;;;;;5023423;28;20367;-76
2022/07/24 14:09:18;;;;;;;7.25;4.75;;;;;;;;;;5019821;28;20525;-76
2022/07/24 14:11:44;;;;;;;8.20;4.40;;;;;;;;;;5017757;28;20128;-76
2022/07/24 14:14:10;;;;;;;7.68;4.78;;;;;;;;;;5024119;28;20091;-76
2022/07/24 14:16:37;;;;;;;7.38;4.68;;;;;;;;;;5022637;28;20029;-76
2022/07/24 14:19:03;;;;;;;7.53;4.85;;;;;;;;;;5021224;28;20033;-75
2022/07/24 14:21:30;;;;;;;6.50;5.20;;;;;;;;;;5017558;28;20033;-76
2022/07/24 14:23:56;;;;;;;7.50;4.38;;;;;;;;;;5019976;28;20362;-76
2022/07/24 14:26:22;;;;;;;6.88;4.30;;;;;;;;;;5022675;28;20044;-76
2022/07/24 14:28:48;;;;;;;6.63;4.50;;;;;;;;;;5019707;28;20088;-76
2022/07/24 14:31:14;;;;;;;6.28;4.50;;;;;;;;;;5019567;28;20033;-76
2022/07/24 14:33:40;;;;;;;8.60;4.57;;;;;;;;;;5020969;28;20033;-76
2022/07/24 14:36:06;;;;;;;5.35;3.95;;;;;;;;;;5023554;28;20480;-76